Главная страница
METAR-TAF:

METAR-TAF

Аэропорты :

Гомель, Белоруссия

широта: 52-31-36N, долгота: 031-01-06E, высота над уровнем моря: 144 м

Текущие метеонаблюдения

Эта сводка был подготовлена 15 минут назад, в 02:30 UTC
Ветер 6 Узел от западный
Температура 16°C
Влажность 72%
Давление 1018 hPa
Видимость 10 км и более
Нет облачности ниже 1500 м, и нет кучево-дождевой облачности

METAR: UMGG 210230Z 28003MPS CAVOK 16/11 Q1018 R28/D NOSIG

Время: 05:45 (02:45 UTC)

Прогноз

Эта сводка был подготовлена 3 часа и 45 минут назад, в 23:00 UTC
Прогноз действительный с 21-го 00 UTC до 21-го 24 UTC
Ветер 10 Узел от западный
Видимость 10 км и более
Отдельные облака на высоте 3000 фута
изменения
С 21-го 11 UTC до 21-го 13 UTC
Ветер 12 Узел от западный-юго-западный
изменения
С 21-го 19 UTC до 21-го 21 UTC
Ветер 12 Узел от южный с порывами до 21 Узел

TAF: UMGG 202300Z 2100/2124 27005MPS 9999 SCT030 TX28/2112Z TN15/2102Z BECMG 2111/2113 24006MPS BECMG 2119/2121 18006G11MPS

Метеонаблюдения и прогнозы для более 4000 аэропортов (сводки METAR и TAF).

Имеющиеся станции представлены на карте желтыми и красными точками.

Чтобы увидеть название станции, наведите на нее мышь.

Затем щелкните, чтобы увидеть метеонаблюдения и метеопрогнозы.

Управление картой: чтобы увеличить масштаб, щелкните зеленые кнопки с черным крестиком; чтобы уменьшить масштаб, щелкните зеленую кнопку с тире; для просмотра соседних карт щелкайте зеленые стрелки.


METAR-TAF: